Terminal Aerodrome Forecast
Issued by NWS

Home | Current Version | Previous Version | Text Only | Print | Product List | Glossary On
Versions: 1 2 3 4 5 6 7 8 9 10 11 12 13 14 15 16 17
000
FTUS44 KLIX 271253 AAA
TAFGPT
TAF AMD
KGPT 271253Z 2713/2812 04006KT P6SM SCT150
     FM271400 02007KT P6SM BKN030 BKN110
     FM280500 35009KT P6SM BKN035 BKN250=

USA.gov is the U.S. government's official web portal to all federal, state and local government web resources and services.